Date,TemperatureHighF,TemperatureAvgF,TemperatureLowF,DewpointHighF,DewpointAvgF,DewpointLowF,HumidityHigh,HumidityAvg,HumidityLow,PressureMaxIn,PressureMinIn,WindSpeedMaxMPH,WindSpeedAvgMPH,GustSpeedMaxMPH,PrecipitationSumIn
2013-1-1,47,46,43,42,40,36,82,78,74,30.04,29.72,0,-999,0,0.00
2013-1-2,48,47,45,45,42,39,90,85,78,30.12,30.08,0,-999,0,0.00
2013-1-4,54,50,48,50,48,46,100,92,75,30.58,30.42,0,-999,0,0.00
2013-1-5,55,50,45,51,48,45,100,95,75,30.49,30.34,0,-999,0,0.00
2013-1-6,50,48,47,49,48,46,100,98,96,30.47,30.40,0,-999,0,0.00
2013-1-9,47,45,41,43,40,38,100,83,74,30.23,30.09,0,-999,0,0.00
2013-1-10,48,44,38,45,41,35,96,87,75,30.08,29.95,0,-999,0,0.00
2013-1-11,47,45,41,47,41,37,100,87,71,30.07,29.83,0,-999,0,0.00
2013-1-12,45,42,40,41,35,31,88,74,63,30.08,29.85,0,-999,0,0.00
2013-1-13,43,43,43,32,32,31,64,64,63,30.08,30.08,0,-999,0,0.00
2013-1-14,44,42,40,38,36,34,88,76,66,29.91,29.70,0,-999,0,0.00
2013-1-15,44,40,36,38,35,34,95,83,74,29.93,29.76,0,-999,0,0.00
2013-1-16,43,43,43,37,36,36,78,78,77,29.76,29.75,0,-999,0,0.00
2013-1-19,39,37,35,31,30,28,78,74,67,29.56,29.50,0,-999,0,0.00
2013-1-21,42,39,36,38,34,29,93,79,62,29.37,29.34,0,-999,0,0.00
2013-1-22,42,39,36,38,36,35,93,87,76,29.62,29.35,0,-999,0,0.00
2013-1-23,40,39,35,36,34,32,91,83,77,29.78,29.70,0,-999,0,0.00
2013-1-24,45,42,39,39,35,30,86,77,69,30.07,29.86,0,-999,0,0.00
2013-1-25,46,42,36,43,39,33,92,89,85,30.01,29.79,0,-999,0,0.00
2013-1-27,45,44,44,36,34,33,72,67,64,29.31,29.28,0,-999,0,0.00
2013-1-28,52,48,43,51,43,33,100,82,66,29.70,29.36,0,-999,0,0.00
2013-1-29,51,50,49,49,47,46,97,89,83,29.58,29.54,0,-999,0,0.00
2013-1-30,51,49,46,46,41,37,97,74,61,29.92,29.61,0,-999,0,0.00
2013-1-31,51,49,46,49,44,40,98,83,70,29.90,29.61,0,-999,0,0.00
2013-2-1,47,43,39,40,37,33,93,81,73,29.83,29.41,0,-999,0,0.00
2013-2-2,43,41,38,35,32,29,79,70,57,30.26,29.86,0,-999,0,0.00
2013-2-3,49,47,40,48,44,34,99,91,80,30.12,29.72,0,-999,0,0.00
2013-2-4,49,42,35,48,36,31,96,77,58,29.79,29.48,0,-999,0,0.00
2013-2-5,45,40,33,44,36,31,100,86,74,29.61,29.16,0,-999,0,0.00
2013-2-6,43,42,40,37,33,29,78,69,60,30.23,29.66,0,-999,0,0.00
2013-2-7,42,40,37,40,36,32,97,86,74,30.26,30.03,0,-999,0,0.00
2013-2-8,46,44,41,45,39,35,100,85,71,30.27,30.10,0,-999,0,0.00
2013-2-9,46,44,39,46,44,39,100,100,97,30.15,29.77,0,-999,0,0.00
2013-2-10,44,41,38,44,40,36,100,98,91,29.73,29.21,0,-999,0,0.00
2013-2-11,41,39,37,36,30,27,90,70,62,29.88,29.39,0,-999,0,0.00
2013-2-12,40,39,38,31,30,28,75,69,65,30.03,29.98,0,-999,0,0.00
2013-2-18,44,42,40,40,37,32,90,82,73,30.13,30.02,0,-999,0,0.00
2013-2-19,45,41,38,43,38,33,100,88,72,30.14,30.04,0,-999,0,0.00
2013-2-20,42,40,39,39,37,32,96,87,76,30.21,30.06,0,-999,0,0.00
2013-2-21,38,37,33,31,28,25,82,70,62,30.27,30.15,0,-999,0,0.00
2013-2-22,38,36,33,27,24,22,69,62,54,30.31,30.19,0,-999,0,0.00
2013-2-23,39,36,34,31,25,22,83,63,51,30.39,30.27,0,-999,0,0.00
2013-2-24,42,39,37,34,30,26,79,70,57,30.48,30.38,0,-999,0,0.00
2013-2-25,44,40,34,38,33,30,89,76,60,30.62,30.49,0,-999,0,0.00
2013-2-26,44,40,36,35,33,28,82,75,68,30.65,30.58,0,-999,0,0.00
2013-2-27,42,42,41,37,37,37,86,84,83,30.71,30.70,0,-999,0,0.00
2013-2-28,47,45,40,45,42,40,99,90,77,30.59,30.50,0,-999,0,0.00
2013-3-1,47,44,38,45,40,34,100,84,67,30.56,30.50,0,-999,0,0.00
2013-3-2,47,46,42,45,43,39,100,91,76,30.41,30.26,0,-999,0,0.00
2013-3-3,46,45,44,46,42,38,100,90,74,30.29,30.16,0,-999,0,0.00
2013-3-4,42,40,39,37,35,34,84,82,80,29.93,29.83,0,-999,0,0.00
2013-3-5,46,41,37,41,38,35,96,89,75,29.71,29.62,0,-999,0,0.00
2013-3-6,46,46,45,45,43,42,100,92,85,29.55,29.49,0,-999,0,0.00
2013-3-7,48,46,44,48,46,44,100,100,98,29.49,29.28,0,-999,0,0.00
2013-3-8,46,46,45,46,46,45,100,100,100,29.31,29.29,0,-999,0,0.00
2013-3-10,39,38,36,31,25,17,74,59,46,29.92,29.78,0,-999,0,0.00
2013-3-11,35,33,31,28,23,18,81,67,51,30.06,29.85,0,-999,0,0.00
2013-3-12,41,38,32,35,26,19,78,63,46,30.11,29.95,0,-999,0,0.00
2013-3-13,44,40,34,37,34,31,91,80,67,30.06,29.87,0,-999,0,0.00
2013-3-14,46,40,35,40,34,29,81,78,73,30.08,29.89,0,-999,0,0.00
2013-3-15,47,44,42,43,39,35,90,81,71,29.75,29.37,0,-999,0,0.00
2013-3-16,44,41,39,41,39,37,97,91,79,29.36,29.27,0,-999,0,0.00
2013-3-17,41,40,40,40,40,39,95,95,95,29.18,29.17,0,-999,0,0.00
2013-3-18,44,41,39,40,38,36,97,89,78,29.44,29.21,0,-999,0,0.00
2013-3-19,42,39,35,41,35,32,97,85,74,29.53,29.38,0,-999,0,0.00
2013-3-20,44,40,36,40,38,36,100,90,76,29.90,29.50,0,-999,0,0.00
2013-3-21,43,41,38,37,34,31,85,76,65,29.96,29.64,0,-999,0,0.00
2013-3-22,43,40,37,42,39,35,100,97,93,29.69,29.48,0,-999,0,0.00
2013-3-23,41,38,33,39,35,30,100,89,78,29.95,29.69,0,-999,0,0.00
2013-3-24,37,36,35,33,28,24,83,73,61,30.09,29.92,0,-999,0,0.00
2013-3-25,39,37,35,28,26,22,68,62,57,30.12,30.00,0,-999,0,0.00
2013-3-26,38,36,35,31,26,23,80,66,57,30.11,29.98,0,-999,0,0.00
2013-3-27,38,36,34,31,29,22,84,75,55,30.03,29.95,0,-999,0,0.00
2013-3-28,41,37,34,29,26,24,78,65,53,30.01,29.94,0,-999,0,0.00
2013-3-29,41,37,31,26,23,20,71,57,51,29.96,29.82,0,-999,0,0.00
2013-3-30,40,38,34,32,26,22,76,63,47,30.00,29.86,0,-999,0,0.00
2013-3-31,42,39,32,30,25,-100,77,61,46,29.99,29.83,0,-999,0,0.00
2013-4-1,41,38,33,31,26,22,73,62,52,29.97,29.75,0,-999,0,0.00
2013-4-2,43,40,33,34,28,25,74,63,48,30.16,29.94,0,-999,0,0.00
2013-4-3,45,41,34,33,31,28,88,68,55,30.24,30.11,0,-999,0,0.00
2013-4-4,44,42,38,34,31,26,76,65,56,30.22,30.09,0,-999,0,0.00
2013-4-5,44,42,40,36,33,29,81,71,57,30.27,30.14,0,-999,0,0.00
2013-4-6,46,42,35,35,32,29,85,68,54,30.34,30.21,0,-999,0,0.00
2013-4-7,45,42,35,38,34,30,91,74,60,30.24,29.85,0,-999,0,0.00
2013-4-8,46,43,38,40,34,30,86,73,56,29.82,29.53,0,-999,0,0.00
2013-4-9,45,41,37,39,36,32,85,80,64,29.62,29.43,0,-999,0,0.00
2013-4-10,47,44,39,46,41,36,100,90,81,29.65,29.49,0,-999,0,0.00
2013-4-11,47,45,42,47,44,39,100,97,89,29.48,29.24,0,-999,0,0.00
2013-4-12,52,46,44,45,44,41,100,92,66,29.69,29.29,0,-999,0,0.00
2013-4-13,50,46,43,50,46,43,100,99,97,29.75,29.43,0,-999,0,0.00
2013-4-14,60,52,46,56,50,46,100,92,60,29.64,29.35,0,-999,0,0.00
2013-4-15,61,51,47,49,46,37,100,87,40,29.85,29.49,0,-999,0,0.00
2013-4-16,58,51,47,50,43,27,100,79,33,29.94,29.52,0,-999,0,0.00
2013-4-17,61,50,46,54,47,35,100,89,54,29.91,29.26,0,-999,0,0.00
2013-4-18,52,49,46,45,44,39,94,83,61,30.02,29.40,0,-999,0,0.00
2013-4-19,54,47,43,44,40,33,93,78,44,30.48,30.12,0,-999,0,0.00
2013-4-20,58,48,44,49,44,36,100,87,45,30.50,30.24,0,-999,0,0.00
2013-4-21,56,48,45,47,44,40,100,87,54,30.24,29.95,0,-999,0,0.00
2013-4-22,58,50,46,53,47,41,100,89,71,29.99,29.80,0,-999,0,0.00
2013-4-23,61,52,48,50,47,45,100,86,56,30.17,29.96,0,-999,0,0.00
2013-4-24,60,50,46,54,42,-100,100,90,75,30.27,29.97,0,-999,0,0.00
2013-4-25,53,48,44,48,44,38,100,88,57,30.24,30.10,0,-999,0,0.00
2013-4-26,49,45,42,40,38,31,87,76,49,30.18,29.89,0,-999,0,0.00
2013-4-27,49,45,41,40,37,34,85,72,58,30.20,30.01,0,-999,0,0.00
2013-4-28,54,48,45,47,40,33,93,73,54,30.14,29.83,0,-999,0,0.00
2013-4-29,54,47,43,43,40,36,85,74,53,30.20,29.92,0,-999,0,0.00
2013-4-30,53,47,43,42,40,36,88,77,63,30.38,30.27,0,-999,0,0.00
2013-5-1,56,50,46,47,43,36,96,79,46,30.32,30.26,0,-999,0,0.00
2013-5-2,61,49,42,47,42,38,96,79,43,30.33,30.13,0,-999,0,0.00
2013-5-3,58,52,48,50,47,44,100,86,59,30.16,29.84,0,-999,0,0.00
2013-5-4,56,50,47,50,45,38,100,84,52,30.00,29.83,0,-999,0,0.00
2013-5-5,64,53,49,53,50,46,100,90,51,30.11,30.00,0,-999,0,0.00
2013-5-6,58,51,48,53,48,47,100,91,70,30.12,29.99,0,-999,0,0.00
2013-5-7,58,53,48,51,48,45,100,82,65,30.05,29.74,0,-999,0,0.00
2013-5-8,63,54,48,53,48,44,100,83,49,29.70,29.33,0,-999,0,0.00
2013-5-9,56,49,46,49,45,37,100,84,63,29.52,29.18,0,-999,0,0.00
2013-5-10,56,50,47,50,46,36,100,85,47,29.77,29.55,0,-999,0,0.00
2013-5-11,50,48,45,48,42,37,100,81,62,29.91,29.69,0,-999,0,0.00
2013-5-12,56,50,45,52,46,39,98,87,77,29.99,29.79,0,-999,0,0.00
2013-5-13,51,48,46,40,38,34,76,69,60,29.86,29.69,0,-999,0,0.00
2013-5-14,55,47,44,42,39,31,85,72,39,29.74,29.36,0,-999,0,0.00
2013-5-15,53,48,44,44,41,34,92,78,49,29.53,29.28,0,-999,0,0.00
2013-5-16,52,47,44,43,30,-100,88,75,59,29.64,29.50,0,-999,0,0.00
2013-5-17,52,49,44,48,43,-100,97,87,76,29.90,29.65,0,-999,0,0.00
2013-5-18,51,49,48,48,43,37,97,78,59,29.93,29.84,0,-999,0,0.00
2013-5-21,52,50,49,47,45,44,89,83,76,30.20,30.14,0,-999,0,0.00
2013-5-22,54,51,49,50,43,34,100,76,45,30.27,30.14,0,-999,0,0.00
2013-5-23,52,47,45,39,37,31,78,68,43,30.21,29.89,0,-999,0,0.00
2013-5-24,55,49,45,43,39,35,81,70,46,30.22,29.92,0,-999,0,0.00
2013-5-25,53,50,46,48,43,34,90,76,47,30.25,30.16,0,-999,0,0.00
2013-5-26,64,52,48,51,48,44,100,86,47,30.19,29.81,0,-999,0,0.00
2013-5-27,57,51,49,50,48,44,100,90,61,29.81,29.44,0,-999,0,0.00
2013-5-28,53,50,48,49,47,43,100,90,79,29.62,29.52,0,-999,0,0.00
2013-5-29,64,53,49,50,48,43,100,84,53,29.93,29.64,0,-999,0,0.00
2013-5-30,67,55,50,51,47,43,96,77,42,30.14,29.93,0,-999,0,0.00
2013-5-31,60,54,49,53,49,47,100,87,65,30.27,30.14,0,-999,0,0.00
2013-6-1,58,52,49,49,46,39,95,78,60,30.38,30.29,0,-999,0,0.00
2013-6-2,61,54,48,52,46,40,97,75,56,30.49,30.40,0,-999,0,0.00
2013-6-3,60,55,50,55,51,48,96,86,74,30.53,30.46,0,-999,0,0.00
2013-6-4,62,56,51,54,51,48,97,82,64,30.49,30.27,0,-999,0,0.00
2013-6-5,59,56,53,53,51,49,96,82,74,30.30,30.13,0,-999,0,0.00
2013-6-6,61,55,52,54,52,49,99,88,76,30.25,30.15,0,-999,0,0.00
2013-6-7,62,57,52,54,51,48,100,81,66,30.31,30.25,0,-999,0,0.00
2013-6-10,61,56,53,54,51,47,94,82,60,29.94,29.85,0,-999,0,0.00
2013-6-11,59,54,51,58,54,51,100,98,90,29.83,29.65,0,-999,0,0.00
2013-6-12,59,54,52,54,53,51,100,98,74,29.72,29.55,0,-999,0,0.00
2013-6-13,61,54,51,54,52,47,100,92,66,29.91,29.55,0,-999,0,0.00
2013-6-14,61,54,51,54,51,46,100,89,56,29.93,29.39,0,-999,0,0.00
2013-6-15,60,54,50,54,48,44,96,82,56,29.68,29.51,0,-999,0,0.00
2013-6-16,58,54,52,54,52,51,100,91,76,29.95,29.75,0,-999,0,0.00
2013-6-17,62,56,53,56,54,51,100,94,71,30.05,29.94,0,-999,0,0.00
2013-6-18,66,58,52,56,53,45,100,83,57,30.04,29.97,0,-999,0,0.00
2013-6-19,68,58,53,54,50,43,100,76,42,30.10,30.00,0,-999,0,0.00